createdAt,value
2023-03-28T00:01:11.639Z,-1.30
2023-03-28T00:03:40.287Z,-1.40
2023-03-28T00:06:18.906Z,-1.50
2023-03-28T00:08:47.242Z,-1.50
2023-03-28T00:11:20.434Z,-1.60
2023-03-28T00:14:00.721Z,-1.60
2023-03-28T00:16:33.083Z,-1.60
2023-03-28T00:19:09.835Z,-1.60
2023-03-28T00:21:41.418Z,-1.70
2023-03-28T00:24:14.668Z,-1.70
2023-03-28T00:26:44.247Z,-1.80
2023-03-28T00:29:20.659Z,-1.80
2023-03-28T00:31:50.232Z,-1.80
2023-03-28T00:34:17.934Z,-1.80
2023-03-28T00:36:44.876Z,-1.80
2023-03-28T00:39:13.323Z,-1.90
2023-03-28T00:41:44.900Z,-1.90
2023-03-28T00:44:47.267Z,-2.00
2023-03-28T00:48:14.036Z,-2.00
2023-03-28T00:50:48.490Z,-2.00
2023-03-28T00:53:25.489Z,-2.00
2023-03-28T00:56:04.093Z,-2.00
2023-03-28T00:58:39.266Z,-2.00
2023-03-28T01:01:07.100Z,-2.00
2023-03-28T01:03:37.398Z,-1.90
2023-03-28T01:06:06.514Z,-1.90
2023-03-28T01:08:41.150Z,-1.90
2023-03-28T01:11:11.372Z,-1.90
2023-03-28T01:13:49.144Z,-1.90
2023-03-28T01:16:19.922Z,-1.90
2023-03-28T01:18:52.949Z,-1.90
2023-03-28T01:22:08.112Z,-1.90
2023-03-28T01:25:43.038Z,-1.90
2023-03-28T01:28:50.637Z,-2.00
2023-03-28T01:32:11.309Z,-2.10
2023-03-28T01:35:08.537Z,-2.10
2023-03-28T01:38:32.717Z,-2.00
2023-03-28T01:41:33.609Z,-2.00
2023-03-28T01:44:38.353Z,-2.00
2023-03-28T01:47:57.079Z,-2.00
2023-03-28T01:51:08.320Z,-2.10
2023-03-28T01:53:51.872Z,-2.00
2023-03-28T01:56:36.006Z,-2.10
2023-03-28T01:59:39.022Z,-2.10
2023-03-28T02:02:27.486Z,-2.00
2023-03-28T02:05:00.355Z,-2.10
2023-03-28T02:07:28.657Z,-2.00
2023-03-28T02:09:58.810Z,-2.00
2023-03-28T02:12:37.707Z,-2.10
2023-03-28T02:15:13.724Z,-2.10
2023-03-28T02:17:52.780Z,-2.10
2023-03-28T02:20:27.912Z,-2.20
2023-03-28T02:23:15.560Z,-2.20
2023-03-28T02:25:42.537Z,-2.20
2023-03-28T02:28:13.610Z,-2.30
2023-03-28T02:30:40.603Z,-2.20
2023-03-28T02:33:46.757Z,-2.20
2023-03-28T02:36:57.355Z,-2.30
2023-03-28T02:40:00.578Z,-2.30
2023-03-28T02:42:55.839Z,-2.30
2023-03-28T02:46:12.548Z,-2.30
2023-03-28T02:49:22.913Z,-2.40
2023-03-28T02:52:51.590Z,-2.30
2023-03-28T02:55:58.112Z,-2.30
2023-03-28T02:58:53.263Z,-2.30
2023-03-28T03:01:25.218Z,-2.30
2023-03-28T03:03:52.728Z,-2.30
2023-03-28T03:06:19.709Z,-2.40
2023-03-28T03:08:46.972Z,-2.40
2023-03-28T03:11:14.222Z,-2.40
2023-03-28T03:13:43.210Z,-2.30
2023-03-28T03:16:10.991Z,-2.30
2023-03-28T03:18:37.903Z,-2.40
2023-03-28T03:21:05.086Z,-2.50
2023-03-28T03:23:31.913Z,-2.50
2023-03-28T03:25:58.989Z,-2.60
2023-03-28T03:28:25.976Z,-2.60
2023-03-28T03:30:53.355Z,-2.50
2023-03-28T03:33:20.326Z,-2.60
2023-03-28T03:35:47.520Z,-2.60
2023-03-28T03:38:14.467Z,-2.60
2023-03-28T03:40:41.461Z,-2.60
2023-03-28T03:43:08.324Z,-2.60
2023-03-28T03:45:35.448Z,-2.60
2023-03-28T03:48:02.404Z,-2.50
2023-03-28T03:50:29.540Z,-2.50
2023-03-28T03:52:58.343Z,-2.50
2023-03-28T03:55:26.517Z,-2.50
2023-03-28T03:57:53.419Z,-2.50
2023-03-28T04:00:20.617Z,-2.60
2023-03-28T04:02:48.654Z,-2.60
2023-03-28T04:05:15.994Z,-2.50
2023-03-28T04:07:43.033Z,-2.40
2023-03-28T04:10:10.733Z,-2.30
2023-03-28T04:12:37.618Z,-2.20
2023-03-28T04:15:07.044Z,-2.20
2023-03-28T04:17:35.772Z,-2.20
2023-03-28T04:20:11.395Z,-2.30
2023-03-28T04:22:45.194Z,-2.40
2023-03-28T04:25:13.719Z,-2.40
2023-03-28T04:27:41.866Z,-2.40
2023-03-28T04:30:10.993Z,-2.50
2023-03-28T04:32:40.603Z,-2.50
2023-03-28T04:35:08.715Z,-2.50
2023-03-28T04:37:37.548Z,-2.50
2023-03-28T04:40:12.601Z,-2.50
2023-03-28T04:42:39.516Z,-2.50
2023-03-28T04:45:08.540Z,-2.50
2023-03-28T04:47:39.900Z,-2.60
2023-03-28T04:50:11.093Z,-2.60
2023-03-28T04:52:37.952Z,-2.60
2023-03-28T04:55:06.319Z,-2.60
2023-03-28T04:57:33.489Z,-2.50
2023-03-28T05:00:00.566Z,-2.50
2023-03-28T05:02:27.491Z,-2.50
2023-03-28T05:04:54.403Z,-2.60
2023-03-28T05:07:21.576Z,-2.60
2023-03-28T05:09:48.455Z,-2.60
2023-03-28T05:12:15.550Z,-2.60
2023-03-28T05:14:42.789Z,-2.60
2023-03-28T05:17:09.636Z,-2.60
2023-03-28T05:19:36.488Z,-2.60
2023-03-28T05:22:03.368Z,-2.60
2023-03-28T05:24:30.274Z,-2.60
2023-03-28T05:26:57.149Z,-2.60
2023-03-28T05:29:24.354Z,-2.60
2023-03-28T05:31:51.255Z,-2.60
2023-03-28T05:34:18.111Z,-2.60
2023-03-28T05:36:45.402Z,-2.60
2023-03-28T05:39:12.292Z,-2.60
2023-03-28T05:41:39.151Z,-2.50
2023-03-28T05:44:06.014Z,-2.50
2023-03-28T05:46:32.960Z,-2.40
2023-03-28T05:48:59.814Z,-2.40
2023-03-28T05:51:26.744Z,-2.30
2023-03-28T05:53:53.674Z,-2.20
2023-03-28T05:56:20.951Z,-2.20
2023-03-28T05:58:48.341Z,-2.10
2023-03-28T06:01:17.905Z,-2.00
2023-03-28T06:03:45.699Z,-1.80
2023-03-28T06:06:13.410Z,-1.70
2023-03-28T06:08:40.583Z,-1.50
2023-03-28T06:11:07.987Z,-1.40
2023-03-28T06:13:34.893Z,-1.30
2023-03-28T06:16:01.894Z,-1.10
2023-03-28T06:18:29.021Z,-1.10
2023-03-28T06:20:56.033Z,-0.90
2023-03-28T06:23:23.916Z,-0.70
2023-03-28T06:25:51.148Z,-0.60
2023-03-28T06:28:18.050Z,-0.40
2023-03-28T06:30:50.169Z,-0.20
2023-03-28T06:33:17.281Z,-0.10
2023-03-28T06:35:44.480Z,-0.10
2023-03-28T06:38:11.491Z,-0.20
2023-03-28T06:40:38.432Z,-0.10
2023-03-28T06:43:05.435Z,-0.10
2023-03-28T06:45:32.308Z,0.00
2023-03-28T06:47:59.265Z,0.00
2023-03-28T06:50:26.181Z,0.00
2023-03-28T06:52:53.142Z,0.10
2023-03-28T06:55:20.047Z,0.40
2023-03-28T06:57:46.891Z,0.80
2023-03-28T07:00:14.971Z,1.10
2023-03-28T07:02:41.958Z,1.20
2023-03-28T07:05:09.363Z,1.10
2023-03-28T07:07:36.334Z,1.20
2023-03-28T07:10:03.565Z,1.30
2023-03-28T07:12:30.543Z,1.10
2023-03-28T07:14:57.418Z,1.00
2023-03-28T07:17:24.302Z,1.00
2023-03-28T07:19:53.501Z,1.20
2023-03-28T07:22:20.410Z,1.90
2023-03-28T07:24:47.272Z,2.20
2023-03-28T07:27:16.665Z,2.10
2023-03-28T07:29:44.154Z,2.40
2023-03-28T07:32:11.776Z,2.30
2023-03-28T07:34:38.789Z,2.10
2023-03-28T07:37:06.338Z,2.40
2023-03-28T07:39:34.358Z,3.10
2023-03-28T07:42:01.431Z,3.60
2023-03-28T07:44:28.320Z,3.90
2023-03-28T07:46:55.173Z,4.20
2023-03-28T07:49:22.093Z,4.10
2023-03-28T07:51:49.001Z,4.10
2023-03-28T07:54:17.789Z,4.10
2023-03-28T07:56:46.595Z,4.00
2023-03-28T07:59:14.624Z,4.50
2023-03-28T08:03:59.583Z,4.00
2023-03-28T08:06:32.427Z,3.60
2023-03-28T08:09:00.933Z,3.30
2023-03-28T08:11:28.175Z,2.80
2023-03-28T08:13:55.104Z,2.70
2023-03-28T08:16:22.769Z,2.40
2023-03-28T08:18:57.104Z,2.50
2023-03-28T08:21:31.023Z,2.80
2023-03-28T08:24:03.340Z,3.10
2023-03-28T08:26:30.779Z,3.70
2023-03-28T08:29:01.311Z,3.80
2023-03-28T08:31:29.851Z,3.30
2023-03-28T08:33:58.480Z,3.10
2023-03-28T08:36:27.950Z,4.00
2023-03-28T08:39:00.273Z,4.90
2023-03-28T08:41:46.877Z,5.30
2023-03-28T08:44:57.019Z,5.90
2023-03-28T08:47:33.094Z,5.40
2023-03-28T08:50:19.727Z,4.40
2023-03-28T08:52:47.676Z,3.80
2023-03-28T08:55:40.499Z,3.80
2023-03-28T08:58:23.145Z,3.80
2023-03-28T09:00:52.771Z,4.10
2023-03-28T09:03:24.399Z,5.10
2023-03-28T09:06:36.715Z,5.20
2023-03-28T09:09:39.078Z,5.10
2023-03-28T09:12:46.041Z,5.00
2023-03-28T09:15:33.677Z,4.80
2023-03-28T09:18:42.418Z,4.70
2023-03-28T09:21:45.608Z,4.40
2023-03-28T09:25:00.295Z,4.00
2023-03-28T09:28:02.210Z,3.90
2023-03-28T09:30:46.718Z,3.70
2023-03-28T09:33:39.089Z,3.60
2023-03-28T09:36:31.499Z,3.50
2023-03-28T09:39:18.450Z,3.30
2023-03-28T09:42:05.146Z,3.40
2023-03-28T09:45:17.130Z,3.50
2023-03-28T09:47:47.748Z,3.50
2023-03-28T09:50:18.908Z,4.00
2023-03-28T09:52:49.691Z,4.40
2023-03-28T09:55:22.202Z,4.50
2023-03-28T09:58:11.867Z,4.50
2023-03-28T10:00:51.939Z,4.90
2023-03-28T10:03:34.880Z,4.90
2023-03-28T10:06:27.648Z,5.00
2023-03-28T10:09:20.299Z,4.80
2023-03-28T10:11:55.124Z,4.90
2023-03-28T10:14:38.955Z,5.20
2023-03-28T10:17:17.526Z,5.40
2023-03-28T10:19:47.946Z,6.20
2023-03-28T10:22:27.278Z,6.00
2023-03-28T10:24:54.996Z,5.30
2023-03-28T10:27:37.404Z,4.80
2023-03-28T10:30:29.522Z,4.60
2023-03-28T10:33:30.461Z,4.70
2023-03-28T10:36:01.135Z,4.60
2023-03-28T10:38:47.272Z,5.30
2023-03-28T10:41:29.386Z,5.60
2023-03-28T10:43:57.437Z,5.50
2023-03-28T10:46:37.471Z,5.70
2023-03-28T10:49:14.292Z,6.40
2023-03-28T10:51:43.772Z,7.20
2023-03-28T10:54:33.940Z,7.00
2023-03-28T10:57:39.886Z,5.90
2023-03-28T11:00:34.122Z,5.60
2023-03-28T11:03:38.251Z,5.60
2023-03-28T11:07:15.627Z,5.60
2023-03-28T11:09:49.040Z,5.80
2023-03-28T11:13:06.591Z,5.90
2023-03-28T11:16:07.063Z,6.40
2023-03-28T11:19:19.744Z,6.30
2023-03-28T11:22:03.579Z,8.80
2023-03-28T11:25:00.858Z,12.10
2023-03-28T11:28:22.164Z,13.40
2023-03-28T11:30:58.346Z,12.20
2023-03-28T11:34:12.977Z,10.30
2023-03-28T11:37:07.345Z,9.70
2023-03-28T11:40:08.469Z,9.80
2023-03-28T11:42:54.617Z,10.10
2023-03-28T11:45:53.074Z,11.30
2023-03-28T11:48:54.814Z,9.40
2023-03-28T11:52:03.753Z,11.70
2023-03-28T11:55:10.797Z,13.80
2023-03-28T11:58:09.000Z,15.10
2023-03-28T12:01:11.680Z,14.30
2023-03-28T12:04:32.998Z,11.90
2023-03-28T12:07:22.129Z,10.00
2023-03-28T12:10:25.537Z,7.90
2023-03-28T12:13:16.684Z,7.40
2023-03-28T12:16:11.771Z,8.50
2023-03-28T12:18:52.159Z,10.70
2023-03-28T12:21:38.779Z,13.40
2023-03-28T12:24:57.108Z,11.40
2023-03-28T12:28:12.586Z,11.30
2023-03-28T12:31:11.642Z,8.50
2023-03-28T12:34:14.591Z,7.70
2023-03-28T12:37:29.954Z,11.70
2023-03-28T12:40:27.877Z,12.50
2023-03-28T12:42:59.857Z,15.80
2023-03-28T12:45:38.192Z,18.80
2023-03-28T12:48:41.963Z,18.90
2023-03-28T12:51:32.020Z,17.70
2023-03-28T12:54:15.642Z,14.60
2023-03-28T12:56:47.902Z,13.10
2023-03-28T13:00:07.124Z,14.90
2023-03-28T13:03:16.240Z,15.50
2023-03-28T13:06:42.035Z,16.60
2023-03-28T13:09:40.388Z,16.00
2023-03-28T13:12:40.173Z,14.80
2023-03-28T13:15:13.090Z,15.90
2023-03-28T13:18:19.989Z,19.00
2023-03-28T13:20:53.310Z,20.10
2023-03-28T13:23:36.614Z,20.00
2023-03-28T13:26:06.889Z,18.70
2023-03-28T13:28:48.699Z,18.20
2023-03-28T13:31:24.148Z,16.90
2023-03-28T13:34:02.509Z,13.90
2023-03-28T13:36:35.349Z,11.50
2023-03-28T13:39:13.916Z,12.90
2023-03-28T13:41:46.875Z,14.30
2023-03-28T13:44:21.105Z,16.00
2023-03-28T13:46:52.461Z,17.80
2023-03-28T13:49:29.551Z,17.70
2023-03-28T13:52:22.943Z,18.50
2023-03-28T13:54:53.917Z,17.90
2023-03-28T13:57:26.322Z,17.80
2023-03-28T14:00:01.281Z,18.20
2023-03-28T14:02:41.268Z,18.20
2023-03-28T14:05:28.451Z,18.20
2023-03-28T14:08:21.338Z,19.40
2023-03-28T14:10:52.071Z,18.90
2023-03-28T14:13:29.978Z,17.60
2023-03-28T14:15:57.284Z,16.80
2023-03-28T14:18:36.919Z,17.20
2023-03-28T14:21:07.497Z,17.30
2023-03-28T14:23:57.464Z,17.00
2023-03-28T14:26:30.862Z,16.80
2023-03-28T14:29:15.686Z,16.40
2023-03-28T14:31:46.788Z,15.30
2023-03-28T14:34:30.377Z,15.40
2023-03-28T14:37:14.465Z,16.00
2023-03-28T14:39:42.157Z,15.60
2023-03-28T14:42:16.907Z,15.50
2023-03-28T14:44:52.303Z,16.50
2023-03-28T14:47:33.125Z,17.20
2023-03-28T14:50:01.970Z,16.30
2023-03-28T14:52:36.392Z,15.90
2023-03-28T14:55:05.721Z,15.60
2023-03-28T14:57:34.640Z,16.40
2023-03-28T15:00:02.951Z,17.00
2023-03-28T15:02:41.346Z,16.50
2023-03-28T15:05:20.622Z,14.70
2023-03-28T15:08:01.903Z,13.90
2023-03-28T15:10:30.822Z,13.50
2023-03-28T15:13:09.179Z,12.80
2023-03-28T15:15:44.985Z,11.70
2023-03-28T15:18:25.027Z,11.80
2023-03-28T15:21:01.681Z,12.40
2023-03-28T15:23:50.184Z,12.50
2023-03-28T15:26:37.963Z,11.60
2023-03-28T15:29:09.287Z,11.00
2023-03-28T15:31:41.228Z,10.50
2023-03-28T15:34:25.806Z,10.40
2023-03-28T15:37:02.234Z,10.30
2023-03-28T15:39:35.088Z,10.30
2023-03-28T15:42:22.544Z,10.50
2023-03-28T15:45:20.804Z,10.50
2023-03-28T15:47:55.922Z,10.10
2023-03-28T15:50:53.249Z,10.00
2023-03-28T15:53:25.341Z,10.30
2023-03-28T15:55:52.512Z,10.00
2023-03-28T15:58:23.081Z,9.20
2023-03-28T16:00:54.583Z,9.00
2023-03-28T16:03:21.502Z,9.00
2023-03-28T16:06:09.892Z,9.10
2023-03-28T16:08:44.733Z,9.10
2023-03-28T16:11:23.294Z,9.00
2023-03-28T16:13:51.046Z,8.80
2023-03-28T16:16:29.874Z,8.60
2023-03-28T16:18:56.745Z,8.40
2023-03-28T16:21:23.833Z,8.30
2023-03-28T16:23:50.703Z,8.10
2023-03-28T16:26:17.618Z,7.90
2023-03-28T16:28:44.564Z,7.80
2023-03-28T16:31:15.599Z,7.80
2023-03-28T16:33:42.492Z,7.90
2023-03-28T16:36:13.272Z,8.10
2023-03-28T16:38:40.381Z,8.50
2023-03-28T16:41:07.875Z,8.70
2023-03-28T16:43:35.016Z,8.80
2023-03-28T16:46:02.566Z,8.60
2023-03-28T16:48:31.905Z,8.50
2023-03-28T16:51:05.105Z,8.30
2023-03-28T16:53:35.103Z,8.20
2023-03-28T16:56:02.521Z,8.40
2023-03-28T16:58:30.389Z,8.50
2023-03-28T17:00:57.606Z,8.70
2023-03-28T17:03:24.718Z,8.90
2023-03-28T17:05:51.703Z,8.90
2023-03-28T17:08:18.608Z,8.60
2023-03-28T17:10:47.297Z,8.10
2023-03-28T17:13:14.181Z,7.70
2023-03-28T17:15:42.094Z,7.40
2023-03-28T17:18:10.001Z,6.90
2023-03-28T17:20:37.011Z,6.40
2023-03-28T17:23:04.013Z,6.10
2023-03-28T17:25:33.464Z,5.80
2023-03-28T17:28:04.101Z,5.50
2023-03-28T17:30:31.915Z,5.30
2023-03-28T17:32:58.866Z,5.00
2023-03-28T17:35:25.849Z,4.80
2023-03-28T17:37:52.844Z,4.60
2023-03-28T17:40:19.822Z,4.50
2023-03-28T17:42:46.718Z,4.30
2023-03-28T17:45:13.606Z,4.20
2023-03-28T17:47:40.512Z,4.00
2023-03-28T17:50:08.553Z,3.90
2023-03-28T17:52:37.537Z,3.80
2023-03-28T17:55:06.177Z,3.70
2023-03-28T17:57:33.153Z,3.50
2023-03-28T18:00:02.060Z,3.40
2023-03-28T18:02:29.329Z,3.20
2023-03-28T18:04:56.515Z,3.00
2023-03-28T18:07:23.399Z,2.80
2023-03-28T18:09:50.326Z,2.70
2023-03-28T18:12:18.614Z,2.60
2023-03-28T18:14:45.941Z,2.50
2023-03-28T18:17:12.812Z,2.40
2023-03-28T18:19:39.678Z,2.30
2023-03-28T18:22:06.636Z,2.20
2023-03-28T18:24:34.048Z,2.20
2023-03-28T18:27:01.495Z,2.10
2023-03-28T18:29:28.420Z,2.10
2023-03-28T18:31:55.415Z,2.00
2023-03-28T18:34:22.397Z,2.00
2023-03-28T18:36:49.392Z,2.00
2023-03-28T18:39:16.795Z,2.00
2023-03-28T18:41:43.689Z,2.00
2023-03-28T18:44:11.161Z,2.00
2023-03-28T18:46:38.052Z,1.80
2023-03-28T18:49:06.445Z,1.70
2023-03-28T18:51:42.447Z,1.70
2023-03-28T18:54:09.377Z,1.50
2023-03-28T18:56:36.403Z,1.40
2023-03-28T18:59:03.936Z,1.30
2023-03-28T19:01:31.456Z,1.20
2023-03-28T19:03:58.450Z,1.10
2023-03-28T19:06:25.370Z,1.00
2023-03-28T19:08:52.260Z,1.00
2023-03-28T19:11:19.655Z,0.90
2023-03-28T19:13:46.807Z,0.80
2023-03-28T19:16:18.392Z,0.80
2023-03-28T19:18:47.225Z,0.80
2023-03-28T19:21:16.803Z,0.90
2023-03-28T19:23:44.086Z,0.90
2023-03-28T19:26:13.795Z,1.00
2023-03-28T19:28:41.857Z,1.00
2023-03-28T19:31:13.129Z,1.10
2023-03-28T19:33:41.052Z,1.20
2023-03-28T19:36:10.268Z,1.30
2023-03-28T19:38:39.052Z,1.30
2023-03-28T19:41:20.468Z,1.40
2023-03-28T19:43:48.640Z,1.40
2023-03-28T19:46:32.596Z,1.50
2023-03-28T19:49:06.179Z,1.60
2023-03-28T19:51:35.125Z,1.70
2023-03-28T19:54:02.481Z,1.80
2023-03-28T19:56:29.842Z,1.90
2023-03-28T19:58:56.775Z,1.90
2023-03-28T20:01:23.839Z,1.90
2023-03-28T20:03:53.118Z,1.90
2023-03-28T20:06:22.864Z,1.80
2023-03-28T20:08:50.798Z,1.60
2023-03-28T20:11:18.296Z,1.40
2023-03-28T20:13:45.762Z,1.20
2023-03-28T20:16:14.868Z,1.20
2023-03-28T20:18:42.311Z,1.20
2023-03-28T20:21:13.032Z,1.10
2023-03-28T20:23:41.193Z,1.20
2023-03-28T20:26:25.772Z,1.30
2023-03-28T20:28:59.238Z,1.30
2023-03-28T20:31:27.862Z,1.40
2023-03-28T20:33:56.759Z,1.40
2023-03-28T20:36:24.132Z,1.40
2023-03-28T20:38:51.362Z,1.40
2023-03-28T20:41:24.451Z,1.40
2023-03-28T20:43:53.061Z,1.40
2023-03-28T20:46:20.929Z,1.50
2023-03-28T20:48:52.901Z,1.50
2023-03-28T20:51:22.587Z,1.60
2023-03-28T20:53:56.832Z,1.70
2023-03-28T20:56:25.508Z,1.80
2023-03-28T20:58:52.996Z,1.90
2023-03-28T21:01:25.191Z,1.90
2023-03-28T21:03:59.688Z,1.90
2023-03-28T21:06:36.413Z,2.00
2023-03-28T21:09:12.202Z,1.90
2023-03-28T21:11:39.941Z,1.90
2023-03-28T21:14:12.919Z,2.00
2023-03-28T21:16:40.368Z,2.00
2023-03-28T21:19:07.608Z,1.90
2023-03-28T21:21:34.722Z,1.90
2023-03-28T21:24:04.691Z,1.90
2023-03-28T21:26:31.992Z,2.00
2023-03-28T21:28:59.267Z,2.00
2023-03-28T21:31:29.200Z,2.00
2023-03-28T21:33:58.754Z,2.10
2023-03-28T21:36:27.752Z,2.10
2023-03-28T21:38:56.537Z,2.10
2023-03-28T21:41:24.016Z,2.10
2023-03-28T21:43:53.501Z,2.10
2023-03-28T21:46:22.698Z,2.10
2023-03-28T21:48:49.816Z,2.10
2023-03-28T21:51:18.099Z,2.10
2023-03-28T21:53:46.129Z,2.10
2023-03-28T21:56:14.758Z,2.10
2023-03-28T21:58:41.911Z,2.10
2023-03-28T22:01:14.612Z,2.10
2023-03-28T22:03:41.914Z,2.20
2023-03-28T22:06:09.708Z,2.20
2023-03-28T22:08:36.608Z,2.20
2023-03-28T22:11:17.368Z,2.20
2023-03-28T22:13:47.116Z,2.30
2023-03-28T22:16:16.097Z,2.20
2023-03-28T22:18:49.446Z,2.20
2023-03-28T22:21:17.238Z,2.20
2023-03-28T22:23:47.264Z,2.20
2023-03-28T22:26:14.717Z,2.20
2023-03-28T22:28:41.741Z,2.20
2023-03-28T22:31:09.070Z,2.20
2023-03-28T22:33:36.888Z,2.20
2023-03-28T22:36:04.666Z,2.20
2023-03-28T22:38:31.536Z,2.20
2023-03-28T22:40:58.583Z,2.20
2023-03-28T22:43:25.525Z,2.20
2023-03-28T22:45:52.460Z,2.20
2023-03-28T22:48:20.086Z,2.20
2023-03-28T22:50:47.552Z,2.20
2023-03-28T22:53:15.182Z,2.20
2023-03-28T22:55:43.960Z,2.20
2023-03-28T22:58:12.371Z,2.20
2023-03-28T23:00:39.638Z,2.20
2023-03-28T23:03:07.770Z,2.20
2023-03-28T23:05:35.053Z,2.30
2023-03-28T23:08:01.980Z,2.30
2023-03-28T23:10:31.978Z,2.30
2023-03-28T23:13:00.173Z,2.40
2023-03-28T23:15:28.123Z,2.40
2023-03-28T23:17:56.279Z,2.40
2023-03-28T23:20:24.582Z,2.40
2023-03-28T23:22:51.498Z,2.40
2023-03-28T23:25:19.504Z,2.40
2023-03-28T23:27:46.937Z,2.40
2023-03-28T23:30:16.123Z,2.40
2023-03-28T23:32:43.767Z,2.30
2023-03-28T23:35:11.807Z,2.30
2023-03-28T23:37:40.079Z,2.30
2023-03-28T23:40:14.156Z,2.30
2023-03-28T23:42:43.816Z,2.30
2023-03-28T23:45:14.562Z,2.30
2023-03-28T23:47:43.957Z,2.30
2023-03-28T23:50:11.991Z,2.30
2023-03-28T23:52:39.697Z,2.30
2023-03-28T23:55:08.461Z,2.30
2023-03-28T23:57:35.402Z,2.30
